sensor_id;sensor_type;location;lat;lon;timestamp;P1;durP1;ratioP1;P2;durP2;ratioP2
71298;SDS011;59083;47.974;21.722;2022-12-07T00:02:16;17.87;;;8.48;;
71298;SDS011;59083;47.974;21.722;2022-12-07T00:05:18;17.23;;;8.25;;
71298;SDS011;59083;47.974;21.722;2022-12-07T00:08:19;18.10;;;9.07;;
71298;SDS011;59083;47.974;21.722;2022-12-07T00:11:21;16.62;;;9.18;;
71298;SDS011;59083;47.974;21.722;2022-12-07T00:14:23;15.50;;;8.67;;
71298;SDS011;59083;47.974;21.722;2022-12-07T00:17:24;16.98;;;8.55;;
71298;SDS011;59083;47.974;21.722;2022-12-07T00:20:25;17.77;;;8.90;;
71298;SDS011;59083;47.974;21.722;2022-12-07T00:23:27;18.15;;;9.40;;
71298;SDS011;59083;47.974;21.722;2022-12-07T00:26:29;17.30;;;8.75;;
71298;SDS011;59083;47.974;21.722;2022-12-07T00:29:32;16.97;;;8.60;;
71298;SDS011;59083;47.974;21.722;2022-12-07T00:32:34;19.00;;;9.73;;
71298;SDS011;59083;47.974;21.722;2022-12-07T00:35:35;17.70;;;9.30;;
71298;SDS011;59083;47.974;21.722;2022-12-07T00:38:36;17.35;;;8.88;;
71298;SDS011;59083;47.974;21.722;2022-12-07T00:41:39;16.08;;;8.02;;
71298;SDS011;59083;47.974;21.722;2022-12-07T00:44:40;16.90;;;9.10;;
71298;SDS011;59083;47.974;21.722;2022-12-07T00:47:41;16.90;;;8.98;;
71298;SDS011;59083;47.974;21.722;2022-12-07T00:50:42;17.45;;;8.55;;
71298;SDS011;59083;47.974;21.722;2022-12-07T00:53:44;18.80;;;9.68;;
71298;SDS011;59083;47.974;21.722;2022-12-07T00:56:45;18.60;;;9.52;;
71298;SDS011;59083;47.974;21.722;2022-12-07T00:59:46;17.17;;;8.60;;
71298;SDS011;59083;47.974;21.722;2022-12-07T01:02:48;16.95;;;8.70;;
71298;SDS011;59083;47.974;21.722;2022-12-07T01:05:50;18.85;;;9.05;;
71298;SDS011;59083;47.974;21.722;2022-12-07T01:08:53;18.30;;;9.27;;
71298;SDS011;59083;47.974;21.722;2022-12-07T01:11:54;17.40;;;8.82;;
71298;SDS011;59083;47.974;21.722;2022-12-07T01:14:55;17.13;;;9.27;;
71298;SDS011;59083;47.974;21.722;2022-12-07T01:17:57;20.45;;;9.18;;
71298;SDS011;59083;47.974;21.722;2022-12-07T01:21:01;18.42;;;9.27;;
71298;SDS011;59083;47.974;21.722;2022-12-07T01:24:13;19.85;;;8.98;;
71298;SDS011;59083;47.974;21.722;2022-12-07T01:27:14;17.92;;;9.30;;
71298;SDS011;59083;47.974;21.722;2022-12-07T01:30:16;17.90;;;8.90;;
71298;SDS011;59083;47.974;21.722;2022-12-07T01:33:17;18.30;;;8.32;;
71298;SDS011;59083;47.974;21.722;2022-12-07T01:36:37;15.90;;;8.50;;
71298;SDS011;59083;47.974;21.722;2022-12-07T01:39:38;19.08;;;8.68;;
71298;SDS011;59083;47.974;21.722;2022-12-07T01:42:39;17.98;;;9.13;;
71298;SDS011;59083;47.974;21.722;2022-12-07T01:45:41;18.00;;;8.53;;
71298;SDS011;59083;47.974;21.722;2022-12-07T01:48:43;16.17;;;8.45;;
71298;SDS011;59083;47.974;21.722;2022-12-07T01:51:45;19.48;;;9.15;;
71298;SDS011;59083;47.974;21.722;2022-12-07T01:54:49;14.82;;;7.70;;
71298;SDS011;59083;47.974;21.722;2022-12-07T01:57:53;18.10;;;8.63;;
71298;SDS011;59083;47.974;21.722;2022-12-07T02:00:56;16.73;;;8.67;;
71298;SDS011;59083;47.974;21.722;2022-12-07T02:03:57;17.92;;;8.10;;
71298;SDS011;59083;47.974;21.722;2022-12-07T02:06:59;19.17;;;8.85;;
71298;SDS011;59083;47.974;21.722;2022-12-07T02:13:15;21.02;;;9.00;;
71298;SDS011;59083;47.974;21.722;2022-12-07T02:16:29;20.33;;;8.63;;
71298;SDS011;59083;47.974;21.722;2022-12-07T02:35:57;18.05;;;8.70;;
71298;SDS011;59083;47.974;21.722;2022-12-07T02:39:06;22.95;;;9.75;;
71298;SDS011;59083;47.974;21.722;2022-12-07T02:42:17;15.13;;;7.47;;
71298;SDS011;59083;47.974;21.722;2022-12-07T02:45:25;18.77;;;8.85;;
71298;SDS011;59083;47.974;21.722;2022-12-07T02:48:28;17.40;;;8.57;;
71298;SDS011;59083;47.974;21.722;2022-12-07T02:51:31;17.42;;;8.80;;
71298;SDS011;59083;47.974;21.722;2022-12-07T02:54:34;17.55;;;9.38;;
71298;SDS011;59083;47.974;21.722;2022-12-07T02:57:40;18.75;;;9.07;;
71298;SDS011;59083;47.974;21.722;2022-12-07T03:00:55;18.92;;;8.95;;
71298;SDS011;59083;47.974;21.722;2022-12-07T03:04:15;18.27;;;8.40;;
71298;SDS011;59083;47.974;21.722;2022-12-07T03:14:08;19.20;;;9.10;;
71298;SDS011;59083;47.974;21.722;2022-12-07T03:17:18;19.05;;;9.43;;
71298;SDS011;59083;47.974;21.722;2022-12-07T03:20:25;19.67;;;9.43;;
71298;SDS011;59083;47.974;21.722;2022-12-07T03:23:28;21.25;;;9.52;;
71298;SDS011;59083;47.974;21.722;2022-12-07T03:26:38;22.90;;;10.15;;
71298;SDS011;59083;47.974;21.722;2022-12-07T03:29:44;18.90;;;9.02;;
71298;SDS011;59083;47.974;21.722;2022-12-07T03:33:04;19.45;;;9.23;;
71298;SDS011;59083;47.974;21.722;2022-12-07T03:36:17;21.60;;;10.40;;
71298;SDS011;59083;47.974;21.722;2022-12-07T03:39:29;21.42;;;9.48;;
71298;SDS011;59083;47.974;21.722;2022-12-07T03:42:35;19.77;;;9.75;;
71298;SDS011;59083;47.974;21.722;2022-12-07T03:45:37;23.65;;;9.98;;
71298;SDS011;59083;47.974;21.722;2022-12-07T03:48:44;20.83;;;10.35;;
71298;SDS011;59083;47.974;21.722;2022-12-07T03:58:08;22.17;;;10.32;;
71298;SDS011;59083;47.974;21.722;2022-12-07T04:01:13;23.17;;;10.60;;
71298;SDS011;59083;47.974;21.722;2022-12-07T04:04:14;20.10;;;10.15;;
71298;SDS011;59083;47.974;21.722;2022-12-07T04:07:15;20.30;;;10.07;;
71298;SDS011;59083;47.974;21.722;2022-12-07T04:10:17;22.20;;;11.10;;
71298;SDS011;59083;47.974;21.722;2022-12-07T04:13:18;23.20;;;11.40;;
71298;SDS011;59083;47.974;21.722;2022-12-07T04:16:20;22.70;;;11.18;;
71298;SDS011;59083;47.974;21.722;2022-12-07T04:19:22;22.70;;;10.82;;
71298;SDS011;59083;47.974;21.722;2022-12-07T04:22:25;23.00;;;10.90;;
71298;SDS011;59083;47.974;21.722;2022-12-07T04:25:26;22.23;;;10.77;;
71298;SDS011;59083;47.974;21.722;2022-12-07T04:28:27;22.52;;;11.52;;
71298;SDS011;59083;47.974;21.722;2022-12-07T04:31:28;21.52;;;11.23;;
71298;SDS011;59083;47.974;21.722;2022-12-07T04:34:30;22.37;;;10.57;;
71298;SDS011;59083;47.974;21.722;2022-12-07T04:37:31;23.20;;;11.80;;
71298;SDS011;59083;47.974;21.722;2022-12-07T04:40:32;20.50;;;10.75;;
71298;SDS011;59083;47.974;21.722;2022-12-07T04:43:33;23.70;;;11.18;;
71298;SDS011;59083;47.974;21.722;2022-12-07T04:46:35;24.05;;;11.70;;
71298;SDS011;59083;47.974;21.722;2022-12-07T04:49:36;23.77;;;11.60;;
71298;SDS011;59083;47.974;21.722;2022-12-07T04:52:38;25.17;;;11.13;;
71298;SDS011;59083;47.974;21.722;2022-12-07T04:55:39;24.17;;;12.13;;
71298;SDS011;59083;47.974;21.722;2022-12-07T04:58:41;27.33;;;13.45;;
71298;SDS011;59083;47.974;21.722;2022-12-07T05:01:43;32.78;;;15.35;;
71298;SDS011;59083;47.974;21.722;2022-12-07T05:04:44;28.83;;;12.80;;
71298;SDS011;59083;47.974;21.722;2022-12-07T05:07:45;26.00;;;11.50;;
71298;SDS011;59083;47.974;21.722;2022-12-07T05:10:48;22.60;;;11.32;;
71298;SDS011;59083;47.974;21.722;2022-12-07T05:13:50;25.35;;;12.20;;
71298;SDS011;59083;47.974;21.722;2022-12-07T05:16:51;23.62;;;11.70;;
71298;SDS011;59083;47.974;21.722;2022-12-07T05:19:54;25.23;;;11.88;;
71298;SDS011;59083;47.974;21.722;2022-12-07T05:22:55;24.47;;;12.33;;
71298;SDS011;59083;47.974;21.722;2022-12-07T05:25:59;22.83;;;11.50;;
71298;SDS011;59083;47.974;21.722;2022-12-07T05:29:00;21.90;;;11.35;;
71298;SDS011;59083;47.974;21.722;2022-12-07T05:32:01;23.17;;;11.30;;
71298;SDS011;59083;47.974;21.722;2022-12-07T05:35:03;27.02;;;11.32;;
71298;SDS011;59083;47.974;21.722;2022-12-07T05:38:04;24.73;;;11.77;;
71298;SDS011;59083;47.974;21.722;2022-12-07T05:41:06;26.23;;;13.23;;
71298;SDS011;59083;47.974;21.722;2022-12-07T05:44:08;23.33;;;11.68;;
71298;SDS011;59083;47.974;21.722;2022-12-07T05:47:10;22.98;;;12.05;;
71298;SDS011;59083;47.974;21.722;2022-12-07T05:50:12;25.62;;;12.10;;
71298;SDS011;59083;47.974;21.722;2022-12-07T05:53:13;24.70;;;12.37;;
71298;SDS011;59083;47.974;21.722;2022-12-07T05:56:14;22.55;;;12.30;;
71298;SDS011;59083;47.974;21.722;2022-12-07T05:59:16;22.92;;;11.90;;
71298;SDS011;59083;47.974;21.722;2022-12-07T06:02:23;24.33;;;12.37;;
71298;SDS011;59083;47.974;21.722;2022-12-07T06:05:24;22.42;;;11.45;;
71298;SDS011;59083;47.974;21.722;2022-12-07T06:08:25;24.73;;;11.50;;
71298;SDS011;59083;47.974;21.722;2022-12-07T06:11:27;24.45;;;12.20;;
71298;SDS011;59083;47.974;21.722;2022-12-07T06:14:46;27.50;;;12.63;;
71298;SDS011;59083;47.974;21.722;2022-12-07T06:17:48;23.08;;;11.88;;
71298;SDS011;59083;47.974;21.722;2022-12-07T06:20:49;23.08;;;12.45;;
71298;SDS011;59083;47.974;21.722;2022-12-07T06:23:50;25.97;;;12.50;;
71298;SDS011;59083;47.974;21.722;2022-12-07T06:26:51;24.48;;;12.82;;
71298;SDS011;59083;47.974;21.722;2022-12-07T06:29:53;27.58;;;13.68;;
71298;SDS011;59083;47.974;21.722;2022-12-07T06:32:54;23.65;;;12.45;;
71298;SDS011;59083;47.974;21.722;2022-12-07T06:35:55;25.80;;;12.43;;
71298;SDS011;59083;47.974;21.722;2022-12-07T06:38:57;22.50;;;12.23;;
71298;SDS011;59083;47.974;21.722;2022-12-07T06:41:59;25.92;;;13.15;;
71298;SDS011;59083;47.974;21.722;2022-12-07T06:45:00;23.70;;;12.25;;
71298;SDS011;59083;47.974;21.722;2022-12-07T06:48:01;23.35;;;11.95;;
71298;SDS011;59083;47.974;21.722;2022-12-07T06:51:02;24.70;;;12.48;;
71298;SDS011;59083;47.974;21.722;2022-12-07T06:54:04;23.27;;;11.90;;
71298;SDS011;59083;47.974;21.722;2022-12-07T06:57:05;25.58;;;12.07;;
71298;SDS011;59083;47.974;21.722;2022-12-07T07:00:06;22.15;;;11.82;;
71298;SDS011;59083;47.974;21.722;2022-12-07T07:03:08;21.48;;;11.50;;
71298;SDS011;59083;47.974;21.722;2022-12-07T07:06:10;20.70;;;11.07;;
71298;SDS011;59083;47.974;21.722;2022-12-07T07:09:11;21.40;;;11.53;;
71298;SDS011;59083;47.974;21.722;2022-12-07T07:12:13;25.50;;;13.20;;
71298;SDS011;59083;47.974;21.722;2022-12-07T07:15:14;23.25;;;11.88;;
71298;SDS011;59083;47.974;21.722;2022-12-07T07:18:15;24.25;;;12.65;;
71298;SDS011;59083;47.974;21.722;2022-12-07T07:21:16;22.62;;;11.98;;
71298;SDS011;59083;47.974;21.722;2022-12-07T07:24:18;24.53;;;12.17;;
71298;SDS011;59083;47.974;21.722;2022-12-07T07:27:19;21.75;;;11.38;;
71298;SDS011;59083;47.974;21.722;2022-12-07T07:30:20;27.30;;;11.63;;
71298;SDS011;59083;47.974;21.722;2022-12-07T07:33:22;23.83;;;11.60;;
71298;SDS011;59083;47.974;21.722;2022-12-07T07:36:23;27.13;;;12.02;;
71298;SDS011;59083;47.974;21.722;2022-12-07T07:39:24;22.67;;;12.27;;
71298;SDS011;59083;47.974;21.722;2022-12-07T07:42:25;24.63;;;12.65;;
71298;SDS011;59083;47.974;21.722;2022-12-07T07:45:27;22.87;;;12.10;;
71298;SDS011;59083;47.974;21.722;2022-12-07T07:48:29;22.58;;;11.02;;
71298;SDS011;59083;47.974;21.722;2022-12-07T07:51:30;23.95;;;11.95;;
71298;SDS011;59083;47.974;21.722;2022-12-07T07:54:31;24.07;;;12.27;;
71298;SDS011;59083;47.974;21.722;2022-12-07T07:57:33;22.48;;;11.18;;
71298;SDS011;59083;47.974;21.722;2022-12-07T08:00:34;21.20;;;10.68;;
71298;SDS011;59083;47.974;21.722;2022-12-07T08:03:35;23.20;;;12.02;;
71298;SDS011;59083;47.974;21.722;2022-12-07T08:06:36;22.70;;;11.02;;
71298;SDS011;59083;47.974;21.722;2022-12-07T08:09:38;22.73;;;11.77;;
71298;SDS011;59083;47.974;21.722;2022-12-07T08:12:40;28.60;;;13.02;;
71298;SDS011;59083;47.974;21.722;2022-12-07T08:16:06;23.23;;;11.70;;
71298;SDS011;59083;47.974;21.722;2022-12-07T08:19:12;20.60;;;11.18;;
71298;SDS011;59083;47.974;21.722;2022-12-07T08:22:13;20.73;;;11.10;;
71298;SDS011;59083;47.974;21.722;2022-12-07T08:25:14;23.07;;;11.63;;
71298;SDS011;59083;47.974;21.722;2022-12-07T08:28:15;21.50;;;11.10;;
71298;SDS011;59083;47.974;21.722;2022-12-07T08:31:17;26.62;;;12.37;;
71298;SDS011;59083;47.974;21.722;2022-12-07T08:34:19;26.65;;;12.55;;
71298;SDS011;59083;47.974;21.722;2022-12-07T08:37:21;24.02;;;12.02;;
71298;SDS011;59083;47.974;21.722;2022-12-07T08:40:22;26.97;;;12.07;;
71298;SDS011;59083;47.974;21.722;2022-12-07T08:43:23;23.58;;;12.35;;
71298;SDS011;59083;47.974;21.722;2022-12-07T08:46:26;22.50;;;12.07;;
71298;SDS011;59083;47.974;21.722;2022-12-07T08:49:39;28.87;;;12.45;;
71298;SDS011;59083;47.974;21.722;2022-12-07T08:52:44;25.15;;;12.23;;
71298;SDS011;59083;47.974;21.722;2022-12-07T08:55:49;25.30;;;11.50;;
71298;SDS011;59083;47.974;21.722;2022-12-07T08:58:50;24.12;;;12.82;;
71298;SDS011;59083;47.974;21.722;2022-12-07T09:01:52;25.12;;;11.65;;
71298;SDS011;59083;47.974;21.722;2022-12-07T09:04:53;22.40;;;12.13;;
71298;SDS011;59083;47.974;21.722;2022-12-07T09:07:55;24.52;;;11.73;;
71298;SDS011;59083;47.974;21.722;2022-12-07T09:11:00;18.27;;;10.17;;
71298;SDS011;59083;47.974;21.722;2022-12-07T09:14:02;20.73;;;11.02;;
71298;SDS011;59083;47.974;21.722;2022-12-07T09:17:12;21.50;;;11.50;;
71298;SDS011;59083;47.974;21.722;2022-12-07T09:20:14;23.08;;;11.40;;
71298;SDS011;59083;47.974;21.722;2022-12-07T09:23:15;21.37;;;11.60;;
71298;SDS011;59083;47.974;21.722;2022-12-07T09:26:16;23.93;;;11.47;;
71298;SDS011;59083;47.974;21.722;2022-12-07T09:29:17;20.37;;;10.65;;
71298;SDS011;59083;47.974;21.722;2022-12-07T09:32:19;22.45;;;11.68;;
71298;SDS011;59083;47.974;21.722;2022-12-07T09:35:20;25.20;;;12.73;;
71298;SDS011;59083;47.974;21.722;2022-12-07T09:38:24;24.80;;;11.70;;
71298;SDS011;59083;47.974;21.722;2022-12-07T09:41:27;26.00;;;13.93;;
71298;SDS011;59083;47.974;21.722;2022-12-07T09:44:30;21.48;;;11.05;;
71298;SDS011;59083;47.974;21.722;2022-12-07T09:47:32;23.12;;;12.10;;
71298;SDS011;59083;47.974;21.722;2022-12-07T09:50:34;21.67;;;11.32;;
71298;SDS011;59083;47.974;21.722;2022-12-07T09:53:36;20.48;;;10.65;;
71298;SDS011;59083;47.974;21.722;2022-12-07T09:56:39;22.27;;;11.67;;
71298;SDS011;59083;47.974;21.722;2022-12-07T09:59:45;21.92;;;11.27;;
71298;SDS011;59083;47.974;21.722;2022-12-07T10:02:51;26.85;;;14.85;;
71298;SDS011;59083;47.974;21.722;2022-12-07T10:05:58;18.83;;;11.10;;
71298;SDS011;59083;47.974;21.722;2022-12-07T10:09:07;21.10;;;11.35;;
71298;SDS011;59083;47.974;21.722;2022-12-07T10:12:11;20.90;;;10.80;;
71298;SDS011;59083;47.974;21.722;2022-12-07T10:15:14;20.85;;;10.80;;
71298;SDS011;59083;47.974;21.722;2022-12-07T10:18:19;19.08;;;10.77;;
71298;SDS011;59083;47.974;21.722;2022-12-07T10:21:32;19.27;;;10.50;;
71298;SDS011;59083;47.974;21.722;2022-12-07T10:24:34;21.65;;;11.35;;
71298;SDS011;59083;47.974;21.722;2022-12-07T10:27:35;19.57;;;10.70;;
71298;SDS011;59083;47.974;21.722;2022-12-07T10:34:00;22.90;;;10.40;;
71298;SDS011;59083;47.974;21.722;2022-12-07T10:40:30;22.10;;;10.63;;
71298;SDS011;59083;47.974;21.722;2022-12-07T10:43:31;23.93;;;12.30;;
71298;SDS011;59083;47.974;21.722;2022-12-07T10:46:40;24.48;;;12.63;;
71298;SDS011;59083;47.974;21.722;2022-12-07T10:57:01;24.02;;;12.02;;
71298;SDS011;59083;47.974;21.722;2022-12-07T11:00:23;22.50;;;12.27;;
71298;SDS011;59083;47.974;21.722;2022-12-07T11:07:20;23.70;;;12.45;;
71298;SDS011;59083;47.974;21.722;2022-12-07T11:14:03;21.20;;;11.38;;
71298;SDS011;59083;47.974;21.722;2022-12-07T11:17:31;21.17;;;11.90;;
71298;SDS011;59083;47.974;21.722;2022-12-07T11:37:51;25.80;;;12.73;;
71298;SDS011;59083;47.974;21.722;2022-12-07T11:41:00;20.95;;;11.85;;
71298;SDS011;59083;47.974;21.722;2022-12-07T11:44:25;21.67;;;11.50;;
71298;SDS011;59083;47.974;21.722;2022-12-07T11:47:40;23.98;;;13.10;;
71298;SDS011;59083;47.974;21.722;2022-12-07T11:50:52;27.07;;;12.83;;
71298;SDS011;59083;47.974;21.722;2022-12-07T11:53:59;23.55;;;12.57;;
71298;SDS011;59083;47.974;21.722;2022-12-07T11:57:13;22.13;;;12.50;;
71298;SDS011;59083;47.974;21.722;2022-12-07T12:00:32;23.02;;;12.05;;
71298;SDS011;59083;47.974;21.722;2022-12-07T12:03:34;21.08;;;11.43;;
71298;SDS011;59083;47.974;21.722;2022-12-07T12:06:43;22.57;;;11.90;;
71298;SDS011;59083;47.974;21.722;2022-12-07T12:09:48;22.25;;;11.43;;
71298;SDS011;59083;47.974;21.722;2022-12-07T12:13:01;22.90;;;12.02;;
71298;SDS011;59083;47.974;21.722;2022-12-07T12:23:23;22.00;;;12.03;;
71298;SDS011;59083;47.974;21.722;2022-12-07T12:26:31;22.98;;;11.35;;
71298;SDS011;59083;47.974;21.722;2022-12-07T12:29:39;24.10;;;11.68;;
71298;SDS011;59083;47.974;21.722;2022-12-07T12:32:44;22.73;;;12.43;;
71298;SDS011;59083;47.974;21.722;2022-12-07T12:35:59;22.62;;;12.35;;
71298;SDS011;59083;47.974;21.722;2022-12-07T12:39:19;22.23;;;12.37;;
71298;SDS011;59083;47.974;21.722;2022-12-07T12:42:42;21.05;;;12.15;;
71298;SDS011;59083;47.974;21.722;2022-12-07T12:45:47;25.33;;;12.43;;
71298;SDS011;59083;47.974;21.722;2022-12-07T12:48:52;22.48;;;12.37;;
71298;SDS011;59083;47.974;21.722;2022-12-07T13:04:38;25.40;;;13.23;;
71298;SDS011;59083;47.974;21.722;2022-12-07T13:11:15;25.47;;;13.63;;
71298;SDS011;59083;47.974;21.722;2022-12-07T13:23:57;23.35;;;12.77;;
71298;SDS011;59083;47.974;21.722;2022-12-07T13:27:01;23.93;;;12.47;;
71298;SDS011;59083;47.974;21.722;2022-12-07T13:30:06;22.55;;;12.35;;
71298;SDS011;59083;47.974;21.722;2022-12-07T13:33:14;22.45;;;11.68;;
71298;SDS011;59083;47.974;21.722;2022-12-07T13:36:20;25.45;;;14.18;;
71298;SDS011;59083;47.974;21.722;2022-12-07T13:39:25;26.67;;;12.32;;
71298;SDS011;59083;47.974;21.722;2022-12-07T13:42:28;22.77;;;11.93;;
71298;SDS011;59083;47.974;21.722;2022-12-07T13:45:32;21.70;;;12.43;;
71298;SDS011;59083;47.974;21.722;2022-12-07T13:48:49;25.92;;;13.32;;
71298;SDS011;59083;47.974;21.722;2022-12-07T13:51:52;22.20;;;11.32;;
71298;SDS011;59083;47.974;21.722;2022-12-07T13:54:58;21.67;;;11.43;;
71298;SDS011;59083;47.974;21.722;2022-12-07T13:58:01;24.00;;;12.43;;
71298;SDS011;59083;47.974;21.722;2022-12-07T14:01:02;22.67;;;11.50;;
71298;SDS011;59083;47.974;21.722;2022-12-07T14:04:27;22.37;;;11.60;;
71298;SDS011;59083;47.974;21.722;2022-12-07T14:07:30;24.95;;;12.00;;
71298;SDS011;59083;47.974;21.722;2022-12-07T14:13:37;20.43;;;11.07;;
71298;SDS011;59083;47.974;21.722;2022-12-07T14:16:41;22.23;;;11.90;;
71298;SDS011;59083;47.974;21.722;2022-12-07T14:19:44;23.52;;;12.10;;
71298;SDS011;59083;47.974;21.722;2022-12-07T14:23:03;21.90;;;12.05;;
71298;SDS011;59083;47.974;21.722;2022-12-07T14:26:12;22.30;;;11.48;;
71298;SDS011;59083;47.974;21.722;2022-12-07T14:32:27;23.48;;;11.18;;
71298;SDS011;59083;47.974;21.722;2022-12-07T14:35:30;24.25;;;12.02;;
71298;SDS011;59083;47.974;21.722;2022-12-07T14:38:32;23.60;;;12.37;;
71298;SDS011;59083;47.974;21.722;2022-12-07T14:41:33;25.95;;;13.45;;
71298;SDS011;59083;47.974;21.722;2022-12-07T14:44:52;26.43;;;12.90;;
71298;SDS011;59083;47.974;21.722;2022-12-07T14:47:54;25.20;;;13.23;;
71298;SDS011;59083;47.974;21.722;2022-12-07T14:50:55;27.23;;;12.73;;
71298;SDS011;59083;47.974;21.722;2022-12-07T14:53:57;24.65;;;12.55;;
71298;SDS011;59083;47.974;21.722;2022-12-07T14:56:58;26.48;;;13.48;;
71298;SDS011;59083;47.974;21.722;2022-12-07T14:59:59;25.43;;;12.70;;
71298;SDS011;59083;47.974;21.722;2022-12-07T15:03:00;27.27;;;12.95;;
71298;SDS011;59083;47.974;21.722;2022-12-07T15:06:03;25.80;;;13.52;;
71298;SDS011;59083;47.974;21.722;2022-12-07T15:09:04;26.27;;;13.27;;
71298;SDS011;59083;47.974;21.722;2022-12-07T15:12:06;29.63;;;14.80;;
71298;SDS011;59083;47.974;21.722;2022-12-07T15:15:08;23.43;;;12.27;;
71298;SDS011;59083;47.974;21.722;2022-12-07T15:18:09;26.55;;;12.07;;
71298;SDS011;59083;47.974;21.722;2022-12-07T15:21:13;25.52;;;12.52;;
71298;SDS011;59083;47.974;21.722;2022-12-07T15:24:15;25.17;;;12.80;;
71298;SDS011;59083;47.974;21.722;2022-12-07T15:27:16;23.48;;;12.68;;
71298;SDS011;59083;47.974;21.722;2022-12-07T15:30:18;24.90;;;12.63;;
71298;SDS011;59083;47.974;21.722;2022-12-07T15:33:19;24.23;;;12.63;;
71298;SDS011;59083;47.974;21.722;2022-12-07T15:36:22;27.65;;;13.02;;
71298;SDS011;59083;47.974;21.722;2022-12-07T15:39:24;24.77;;;13.10;;
71298;SDS011;59083;47.974;21.722;2022-12-07T15:42:26;24.42;;;12.35;;
71298;SDS011;59083;47.974;21.722;2022-12-07T15:45:27;23.60;;;12.77;;
71298;SDS011;59083;47.974;21.722;2022-12-07T15:48:28;26.25;;;12.77;;
71298;SDS011;59083;47.974;21.722;2022-12-07T15:51:29;27.52;;;14.30;;
71298;SDS011;59083;47.974;21.722;2022-12-07T15:54:31;25.30;;;12.52;;
71298;SDS011;59083;47.974;21.722;2022-12-07T15:57:34;28.48;;;13.90;;
71298;SDS011;59083;47.974;21.722;2022-12-07T16:00:37;26.10;;;13.07;;
71298;SDS011;59083;47.974;21.722;2022-12-07T16:03:39;26.70;;;13.05;;
71298;SDS011;59083;47.974;21.722;2022-12-07T16:06:40;28.42;;;12.52;;
71298;SDS011;59083;47.974;21.722;2022-12-07T16:09:42;25.27;;;12.50;;
71298;SDS011;59083;47.974;21.722;2022-12-07T16:12:44;27.62;;;12.95;;
71298;SDS011;59083;47.974;21.722;2022-12-07T16:15:45;24.80;;;11.73;;
71298;SDS011;59083;47.974;21.722;2022-12-07T16:18:46;23.58;;;11.65;;
71298;SDS011;59083;47.974;21.722;2022-12-07T16:21:48;25.45;;;12.50;;
71298;SDS011;59083;47.974;21.722;2022-12-07T16:24:49;22.50;;;12.02;;
71298;SDS011;59083;47.974;21.722;2022-12-07T16:27:51;23.92;;;12.73;;
71298;SDS011;59083;47.974;21.722;2022-12-07T16:30:59;27.07;;;12.50;;
71298;SDS011;59083;47.974;21.722;2022-12-07T16:34:04;26.40;;;12.73;;
71298;SDS011;59083;47.974;21.722;2022-12-07T16:37:05;28.60;;;13.65;;
71298;SDS011;59083;47.974;21.722;2022-12-07T16:40:06;28.58;;;13.68;;
71298;SDS011;59083;47.974;21.722;2022-12-07T16:43:08;27.83;;;13.20;;
71298;SDS011;59083;47.974;21.722;2022-12-07T16:46:13;28.40;;;13.23;;
71298;SDS011;59083;47.974;21.722;2022-12-07T16:49:15;23.73;;;12.45;;
71298;SDS011;59083;47.974;21.722;2022-12-07T16:52:18;28.00;;;13.88;;
71298;SDS011;59083;47.974;21.722;2022-12-07T16:55:19;26.87;;;12.88;;
71298;SDS011;59083;47.974;21.722;2022-12-07T16:58:21;28.67;;;13.68;;
71298;SDS011;59083;47.974;21.722;2022-12-07T17:01:22;31.27;;;14.47;;
71298;SDS011;59083;47.974;21.722;2022-12-07T17:04:23;29.35;;;14.40;;
71298;SDS011;59083;47.974;21.722;2022-12-07T17:07:24;28.35;;;13.80;;
71298;SDS011;59083;47.974;21.722;2022-12-07T17:10:26;29.37;;;14.43;;
71298;SDS011;59083;47.974;21.722;2022-12-07T17:13:27;32.13;;;15.38;;
71298;SDS011;59083;47.974;21.722;2022-12-07T17:16:47;29.47;;;15.07;;
71298;SDS011;59083;47.974;21.722;2022-12-07T17:19:48;32.08;;;15.07;;
71298;SDS011;59083;47.974;21.722;2022-12-07T17:22:49;28.08;;;14.10;;
71298;SDS011;59083;47.974;21.722;2022-12-07T17:25:51;30.80;;;15.05;;
71298;SDS011;59083;47.974;21.722;2022-12-07T17:28:52;29.10;;;14.82;;
71298;SDS011;59083;47.974;21.722;2022-12-07T17:31:53;29.33;;;13.93;;
71298;SDS011;59083;47.974;21.722;2022-12-07T17:34:54;27.90;;;14.55;;
71298;SDS011;59083;47.974;21.722;2022-12-07T17:37:56;30.15;;;14.50;;
71298;SDS011;59083;47.974;21.722;2022-12-07T17:40:57;28.25;;;14.40;;
71298;SDS011;59083;47.974;21.722;2022-12-07T17:43:58;34.13;;;15.48;;
71298;SDS011;59083;47.974;21.722;2022-12-07T17:47:00;30.43;;;14.77;;
71298;SDS011;59083;47.974;21.722;2022-12-07T17:50:04;32.22;;;14.75;;
71298;SDS011;59083;47.974;21.722;2022-12-07T17:53:07;30.83;;;14.40;;
71298;SDS011;59083;47.974;21.722;2022-12-07T17:56:10;30.92;;;15.40;;
71298;SDS011;59083;47.974;21.722;2022-12-07T17:59:12;29.63;;;14.57;;
71298;SDS011;59083;47.974;21.722;2022-12-07T18:02:14;30.83;;;15.33;;
71298;SDS011;59083;47.974;21.722;2022-12-07T18:05:16;38.45;;;18.87;;
71298;SDS011;59083;47.974;21.722;2022-12-07T18:08:17;34.33;;;15.63;;
71298;SDS011;59083;47.974;21.722;2022-12-07T18:11:19;30.58;;;15.00;;
71298;SDS011;59083;47.974;21.722;2022-12-07T18:14:20;32.40;;;14.82;;
71298;SDS011;59083;47.974;21.722;2022-12-07T18:17:21;29.70;;;15.13;;
71298;SDS011;59083;47.974;21.722;2022-12-07T18:20:22;30.50;;;14.73;;
71298;SDS011;59083;47.974;21.722;2022-12-07T18:23:24;31.42;;;14.93;;
71298;SDS011;59083;47.974;21.722;2022-12-07T18:26:25;29.85;;;15.25;;
71298;SDS011;59083;47.974;21.722;2022-12-07T18:29:27;32.45;;;15.48;;
71298;SDS011;59083;47.974;21.722;2022-12-07T18:32:28;30.73;;;15.80;;
71298;SDS011;59083;47.974;21.722;2022-12-07T18:35:30;31.42;;;15.27;;
71298;SDS011;59083;47.974;21.722;2022-12-07T18:38:34;30.02;;;15.18;;
71298;SDS011;59083;47.974;21.722;2022-12-07T18:41:36;28.17;;;13.65;;
71298;SDS011;59083;47.974;21.722;2022-12-07T18:44:38;27.75;;;14.32;;
71298;SDS011;59083;47.974;21.722;2022-12-07T18:47:39;31.07;;;14.63;;
71298;SDS011;59083;47.974;21.722;2022-12-07T18:50:41;30.73;;;14.85;;
71298;SDS011;59083;47.974;21.722;2022-12-07T18:53:43;30.77;;;14.85;;
71298;SDS011;59083;47.974;21.722;2022-12-07T18:56:45;31.45;;;15.00;;
71298;SDS011;59083;47.974;21.722;2022-12-07T18:59:46;29.27;;;13.65;;
71298;SDS011;59083;47.974;21.722;2022-12-07T19:02:49;30.87;;;15.23;;
71298;SDS011;59083;47.974;21.722;2022-12-07T19:05:51;32.78;;;15.88;;
71298;SDS011;59083;47.974;21.722;2022-12-07T19:08:54;30.08;;;15.20;;
71298;SDS011;59083;47.974;21.722;2022-12-07T19:11:55;27.95;;;14.15;;
71298;SDS011;59083;47.974;21.722;2022-12-07T19:15:01;29.90;;;15.55;;
71298;SDS011;59083;47.974;21.722;2022-12-07T19:18:02;31.47;;;14.37;;
71298;SDS011;59083;47.974;21.722;2022-12-07T19:21:03;32.05;;;14.20;;
71298;SDS011;59083;47.974;21.722;2022-12-07T19:24:05;31.70;;;13.90;;
71298;SDS011;59083;47.974;21.722;2022-12-07T19:27:07;28.85;;;14.07;;
71298;SDS011;59083;47.974;21.722;2022-12-07T19:30:08;26.85;;;13.57;;
71298;SDS011;59083;47.974;21.722;2022-12-07T19:33:11;29.53;;;13.27;;